createdAt,value
2017-11-09T00:01:13.663Z,91.60
2017-11-09T00:03:46.913Z,89.23
2017-11-09T00:06:20.093Z,91.53
2017-11-09T00:08:47.558Z,91.30
2017-11-09T00:11:15.017Z,96.77
2017-11-09T00:13:42.500Z,104.10
2017-11-09T00:16:10.747Z,85.73
2017-11-09T00:18:38.345Z,97.67
2017-11-09T00:21:05.838Z,97.87
2017-11-09T00:23:33.309Z,87.97
2017-11-09T00:26:00.786Z,97.60
2017-11-09T00:28:28.883Z,90.47
2017-11-09T00:30:57.123Z,89.33
2017-11-09T00:33:24.614Z,95.43
2017-11-09T00:35:52.849Z,92.60
2017-11-09T00:38:20.376Z,97.63
2017-11-09T00:40:47.920Z,104.70
2017-11-09T00:43:16.147Z,91.40
2017-11-09T00:45:43.696Z,91.17
2017-11-09T00:48:11.168Z,81.33
2017-11-09T00:50:39.467Z,101.20
2017-11-09T00:53:07.698Z,92.50
2017-11-09T00:55:35.167Z,77.43
2017-11-09T00:58:02.849Z,92.17
2017-11-09T01:00:31.172Z,101.40
2017-11-09T01:02:58.631Z,90.27
2017-11-09T01:05:26.140Z,93.40
2017-11-09T01:07:54.377Z,91.13
2017-11-09T01:10:21.841Z,91.93
2017-11-09T01:12:49.310Z,87.77
2017-11-09T01:15:16.793Z,89.63
2017-11-09T01:17:45.030Z,86.23
2017-11-09T01:20:12.586Z,95.27
2017-11-09T01:22:40.038Z,96.33
2017-11-09T01:25:07.530Z,86.97
2017-11-09T01:27:35.007Z,85.10
2017-11-09T01:30:03.286Z,90.00
2017-11-09T01:32:31.534Z,100.50
2017-11-09T01:34:59.095Z,83.77
2017-11-09T01:37:26.558Z,88.10
2017-11-09T01:39:54.048Z,96.10
2017-11-09T01:42:21.519Z,89.90
2017-11-09T01:44:48.994Z,78.97
2017-11-09T01:47:16.453Z,83.63
2017-11-09T01:49:43.933Z,82.03
2017-11-09T01:52:11.405Z,78.80
2017-11-09T01:54:39.030Z,90.93
2017-11-09T01:57:06.527Z,86.47
2017-11-09T01:59:34.769Z,94.03
2017-11-09T02:02:02.242Z,105.57
2017-11-09T02:04:29.750Z,82.37
2017-11-09T02:06:57.330Z,90.47
2017-11-09T02:09:24.790Z,83.97
2017-11-09T02:11:52.389Z,97.60
2017-11-09T02:14:20.623Z,99.57
2017-11-09T02:16:48.099Z,90.83
2017-11-09T02:19:15.556Z,98.37
2017-11-09T02:21:43.034Z,102.77
2017-11-09T02:24:11.296Z,89.70
2017-11-09T02:26:38.937Z,96.43
2017-11-09T02:29:06.527Z,101.97
2017-11-09T02:31:34.185Z,99.97
2017-11-09T02:34:01.801Z,83.80
2017-11-09T02:36:29.301Z,94.17
2017-11-09T02:38:56.924Z,103.83
2017-11-09T02:41:24.507Z,84.57
2017-11-09T02:43:51.984Z,88.47
2017-11-09T02:46:19.530Z,93.83
2017-11-09T02:48:47.017Z,93.97
2017-11-09T02:51:15.247Z,86.63
2017-11-09T02:53:42.732Z,98.57
2017-11-09T02:56:10.995Z,96.37
2017-11-09T02:58:38.480Z,94.93
2017-11-09T03:01:06.732Z,96.03
2017-11-09T03:03:34.194Z,86.03
2017-11-09T03:06:03.170Z,97.77
2017-11-09T03:08:30.647Z,110.87
2017-11-09T03:10:58.909Z,107.80
2017-11-09T03:13:26.378Z,91.37
2017-11-09T03:15:54.613Z,89.30
2017-11-09T03:18:26.218Z,89.33
2017-11-09T03:20:54.448Z,91.07
2017-11-09T03:23:21.921Z,97.93
2017-11-09T03:25:49.384Z,94.00
2017-11-09T03:28:16.834Z,86.87
2017-11-09T03:30:44.322Z,88.90
2017-11-09T03:33:12.575Z,102.40
2017-11-09T03:35:40.237Z,93.50
2017-11-09T03:38:07.778Z,89.13
2017-11-09T03:40:35.462Z,88.60
2017-11-09T03:43:03.715Z,93.03
2017-11-09T03:45:31.194Z,75.67
2017-11-09T03:47:59.417Z,96.60
2017-11-09T03:50:26.901Z,93.03
2017-11-09T03:52:54.375Z,89.13
2017-11-09T03:55:21.864Z,86.97
2017-11-09T03:57:49.375Z,89.70
2017-11-09T04:00:16.859Z,80.30
2017-11-09T04:02:45.093Z,87.30
2017-11-09T04:05:12.574Z,92.83
2017-11-09T04:07:40.036Z,84.87
2017-11-09T04:10:07.510Z,92.97
2017-11-09T04:12:35.752Z,103.20
2017-11-09T04:15:03.246Z,83.23
2017-11-09T04:17:31.489Z,88.87
2017-11-09T04:19:58.962Z,86.50
2017-11-09T04:22:26.426Z,88.83
2017-11-09T04:24:53.980Z,79.70
2017-11-09T04:27:21.449Z,85.33
2017-11-09T04:29:49.811Z,96.07
2017-11-09T04:32:18.028Z,96.73
2017-11-09T04:34:45.494Z,95.37
2017-11-09T04:37:12.954Z,91.20
2017-11-09T04:39:40.485Z,96.50
2017-11-09T04:42:08.181Z,96.53
2017-11-09T04:44:35.644Z,94.90
2017-11-09T04:47:03.118Z,89.00
2017-11-09T04:49:30.905Z,93.93
2017-11-09T04:51:58.373Z,92.00
2017-11-09T04:54:27.201Z,100.10
2017-11-09T04:56:54.756Z,100.57
2017-11-09T04:59:22.213Z,93.50
2017-11-09T05:01:49.690Z,103.80
2017-11-09T05:04:17.165Z,101.00
2017-11-09T05:06:44.641Z,87.77
2017-11-09T05:09:12.862Z,86.07
2017-11-09T05:11:40.346Z,91.70
2017-11-09T05:14:07.816Z,93.27
2017-11-09T05:16:35.275Z,94.17
2017-11-09T05:19:03.516Z,93.83
2017-11-09T05:21:30.982Z,89.23
2017-11-09T05:23:58.460Z,93.23
2017-11-09T05:26:25.917Z,99.17
2017-11-09T05:28:53.478Z,95.30
2017-11-09T05:31:20.931Z,99.33
2017-11-09T05:33:48.556Z,94.40
2017-11-09T05:36:16.073Z,102.63
2017-11-09T05:38:45.772Z,104.90
2017-11-09T05:41:14.016Z,93.40
2017-11-09T05:43:41.486Z,96.57
2017-11-09T05:46:09.146Z,105.00
2017-11-09T05:48:36.702Z,91.50
2017-11-09T05:51:04.166Z,92.30
2017-11-09T05:53:31.636Z,100.07
2017-11-09T05:55:59.870Z,99.80
2017-11-09T05:58:27.342Z,105.67
2017-11-09T06:00:55.026Z,103.67
2017-11-09T06:03:23.310Z,120.03
2017-11-09T06:05:51.665Z,102.93
2017-11-09T06:08:19.151Z,106.03
2017-11-09T06:10:47.568Z,112.83
2017-11-09T06:13:15.031Z,112.57
2017-11-09T06:15:42.527Z,108.13
2017-11-09T06:18:09.988Z,106.97
2017-11-09T06:20:37.642Z,104.00
2017-11-09T06:23:05.881Z,108.17
2017-11-09T06:25:33.503Z,97.90
2017-11-09T06:28:01.762Z,116.23
2017-11-09T06:30:30.159Z,99.40
2017-11-09T06:32:57.682Z,109.90
2017-11-09T06:35:25.156Z,102.80
2017-11-09T06:37:52.862Z,112.70
2017-11-09T06:40:20.326Z,111.60
2017-11-09T06:42:47.806Z,113.57
2017-11-09T06:45:15.385Z,111.27
2017-11-09T06:47:42.869Z,100.90
2017-11-09T06:50:11.125Z,111.87
2017-11-09T06:52:38.582Z,106.90
2017-11-09T06:55:06.853Z,109.20
2017-11-09T06:57:35.807Z,112.57
2017-11-09T07:00:03.694Z,110.50
2017-11-09T07:02:31.169Z,109.33
2017-11-09T07:04:58.633Z,100.47
2017-11-09T07:07:26.937Z,115.20
2017-11-09T07:09:54.474Z,112.83
2017-11-09T07:12:22.822Z,115.77
2017-11-09T07:14:50.299Z,100.53
2017-11-09T07:17:18.546Z,117.30
2017-11-09T07:19:46.018Z,121.83
2017-11-09T07:22:13.489Z,118.90
2017-11-09T07:24:41.830Z,113.53
2017-11-09T07:27:09.361Z,113.13
2017-11-09T07:29:38.709Z,103.80
2017-11-09T07:32:06.189Z,112.10
2017-11-09T07:34:34.434Z,110.27
2017-11-09T07:37:01.908Z,116.73
2017-11-09T07:39:29.391Z,124.03
2017-11-09T07:41:57.005Z,104.30
2017-11-09T07:44:26.514Z,108.07
2017-11-09T07:46:54.003Z,96.13
2017-11-09T07:49:22.239Z,114.33
2017-11-09T07:51:49.718Z,100.17
2017-11-09T07:54:17.206Z,102.33
2017-11-09T07:56:44.695Z,95.33
2017-11-09T07:59:12.251Z,99.10
2017-11-09T08:01:39.730Z,80.80
2017-11-09T08:04:07.330Z,92.43
2017-11-09T08:06:35.614Z,99.30
2017-11-09T08:09:03.126Z,84.17
2017-11-09T08:11:30.616Z,98.33
2017-11-09T08:13:58.153Z,88.70
2017-11-09T08:16:25.655Z,86.17
2017-11-09T08:18:53.120Z,86.00
2017-11-09T08:21:20.578Z,88.70
2017-11-09T08:23:48.071Z,78.40
2017-11-09T08:26:18.462Z,84.10
2017-11-09T08:28:52.398Z,70.37
2017-11-09T08:31:23.870Z,80.70
2017-11-09T08:33:51.347Z,80.83
2017-11-09T08:36:19.591Z,75.73
2017-11-09T08:38:47.183Z,83.50
2017-11-09T08:41:15.440Z,75.17
2017-11-09T08:43:43.691Z,74.00
2017-11-09T08:46:11.168Z,70.70
2017-11-09T08:48:39.429Z,77.50
2017-11-09T08:51:06.948Z,76.17
2017-11-09T08:53:34.520Z,78.63
2017-11-09T08:56:02.134Z,76.23
2017-11-09T08:58:30.389Z,77.40
2017-11-09T09:00:57.904Z,80.70
2017-11-09T09:03:25.415Z,74.43
2017-11-09T09:05:52.877Z,65.20
2017-11-09T09:08:21.145Z,73.23
2017-11-09T09:10:48.681Z,70.67
2017-11-09T09:13:16.142Z,85.80
2017-11-09T09:15:43.906Z,69.87
2017-11-09T09:18:11.377Z,72.30
2017-11-09T09:20:39.327Z,73.60
2017-11-09T09:23:06.787Z,77.80
2017-11-09T09:25:54.052Z,74.83
2017-11-09T09:28:25.736Z,82.23
2017-11-09T09:30:53.992Z,68.67
2017-11-09T09:33:24.834Z,79.17
2017-11-09T09:35:56.689Z,73.57
2017-11-09T09:38:32.556Z,75.83
2017-11-09T09:41:00.040Z,74.00
2017-11-09T09:43:27.669Z,76.73
2017-11-09T09:45:55.218Z,78.17
2017-11-09T09:48:22.888Z,78.23
2017-11-09T09:50:50.393Z,74.40
2017-11-09T09:53:17.915Z,84.00
2017-11-09T09:55:45.466Z,74.03
2017-11-09T09:58:12.962Z,87.70
2017-11-09T10:00:40.530Z,86.40
2017-11-09T10:03:08.290Z,104.83
2017-11-09T10:05:35.814Z,99.50
2017-11-09T10:08:03.314Z,93.87
2017-11-09T10:10:31.565Z,88.20
2017-11-09T10:12:59.063Z,92.37
2017-11-09T10:15:27.299Z,86.40
2017-11-09T10:17:54.770Z,83.23
2017-11-09T10:20:22.246Z,97.47
2017-11-09T10:22:50.478Z,95.07
2017-11-09T10:25:17.967Z,93.10
2017-11-09T10:27:45.487Z,102.33
2017-11-09T10:30:12.950Z,88.33
2017-11-09T10:32:40.482Z,99.10
2017-11-09T10:35:08.003Z,100.60
2017-11-09T10:37:35.524Z,84.10
2017-11-09T10:40:03.033Z,90.43
2017-11-09T10:42:31.303Z,90.77
2017-11-09T10:44:59.654Z,92.63
2017-11-09T10:47:27.148Z,97.30
2017-11-09T10:49:54.636Z,92.97
2017-11-09T10:52:22.139Z,95.07
2017-11-09T10:54:49.605Z,89.87
2017-11-09T10:57:17.618Z,103.47
2017-11-09T10:59:45.867Z,97.87
2017-11-09T11:02:13.326Z,98.63
2017-11-09T11:04:40.810Z,99.77
2017-11-09T11:07:08.416Z,99.47
2017-11-09T11:09:36.034Z,91.70
2017-11-09T11:12:03.675Z,94.07
2017-11-09T11:14:31.211Z,86.30
2017-11-09T11:16:59.479Z,89.93
2017-11-09T11:19:27.739Z,88.90
2017-11-09T11:21:55.227Z,80.73
2017-11-09T11:24:22.738Z,78.30
2017-11-09T11:26:50.223Z,93.23
2017-11-09T11:29:18.501Z,80.63
2017-11-09T11:31:45.966Z,86.70
2017-11-09T11:34:14.224Z,85.93
2017-11-09T11:36:42.511Z,86.03
2017-11-09T11:39:10.793Z,81.33
2017-11-09T11:41:39.157Z,83.47
2017-11-09T11:44:06.668Z,85.27
2017-11-09T11:46:34.195Z,75.43
2017-11-09T11:49:02.513Z,86.90
2017-11-09T11:51:30.998Z,79.70
2017-11-09T11:53:58.732Z,69.13
2017-11-09T11:56:26.247Z,63.07
2017-11-09T11:58:53.734Z,59.13
2017-11-09T12:01:21.216Z,57.00
2017-11-09T12:03:48.710Z,65.30
2017-11-09T12:06:16.320Z,60.30
2017-11-09T12:08:43.795Z,64.70
2017-11-09T12:11:11.335Z,67.67
2017-11-09T12:13:38.886Z,68.90
2017-11-09T12:16:08.584Z,64.67
2017-11-09T12:18:36.075Z,69.37
2017-11-09T12:21:03.579Z,66.60
2017-11-09T12:23:31.063Z,62.37
2017-11-09T12:25:59.307Z,63.33
2017-11-09T12:28:27.642Z,63.17
2017-11-09T12:31:09.951Z,65.13
2017-11-09T12:33:37.487Z,63.90
2017-11-09T12:36:05.037Z,65.17
2017-11-09T12:38:33.266Z,59.40
2017-11-09T12:41:01.318Z,62.23
2017-11-09T12:43:28.929Z,56.90
2017-11-09T12:45:57.165Z,64.67
2017-11-09T12:48:24.646Z,69.63
2017-11-09T12:50:52.123Z,60.43
2017-11-09T12:53:20.363Z,66.90
2017-11-09T12:55:47.846Z,62.03
2017-11-09T13:00:49.302Z,67.23
2017-11-09T13:03:18.291Z,72.37
2017-11-09T13:05:45.773Z,75.03
2017-11-09T13:08:14.046Z,61.83
2017-11-09T13:10:42.278Z,65.37
2017-11-09T13:13:09.741Z,57.33
2017-11-09T13:15:37.223Z,69.33
2017-11-09T13:18:04.697Z,60.03
2017-11-09T13:20:32.187Z,62.17
2017-11-09T13:22:59.740Z,62.23
2017-11-09T13:25:27.223Z,60.20
2017-11-09T13:27:54.722Z,56.13
2017-11-09T13:30:22.965Z,54.33
2017-11-09T13:32:51.013Z,57.70
2017-11-09T13:35:18.592Z,57.83
2017-11-09T13:37:46.063Z,56.53
2017-11-09T13:40:13.524Z,74.50
2017-11-09T13:42:41.003Z,60.93
2017-11-09T13:45:08.470Z,62.40
2017-11-09T13:47:35.937Z,58.40
2017-11-09T13:50:03.453Z,66.90
2017-11-09T13:52:30.916Z,57.93
2017-11-09T13:54:58.390Z,74.00
2017-11-09T13:57:26.628Z,71.30
2017-11-09T13:59:55.601Z,62.13
2017-11-09T14:02:23.120Z,81.67
2017-11-09T14:04:51.364Z,76.00
2017-11-09T14:07:18.854Z,78.50
2017-11-09T14:09:46.313Z,73.97
2017-11-09T14:12:13.915Z,76.20
2017-11-09T14:14:41.484Z,76.33
2017-11-09T14:17:09.081Z,67.63
2017-11-09T14:19:37.306Z,76.90
2017-11-09T14:22:04.774Z,67.47
2017-11-09T14:24:32.249Z,65.00
2017-11-09T14:27:02.970Z,79.90
2017-11-09T14:29:30.954Z,74.53
2017-11-09T14:31:58.440Z,71.03
2017-11-09T14:34:25.922Z,71.33
2017-11-09T14:36:53.514Z,71.80
2017-11-09T14:39:21.015Z,70.70
2017-11-09T14:41:48.496Z,66.83
2017-11-09T14:44:16.058Z,73.10
2017-11-09T14:46:45.324Z,71.50
2017-11-09T14:49:12.811Z,65.83
2017-11-09T14:51:40.299Z,72.07
2017-11-09T14:54:07.759Z,64.97
2017-11-09T14:56:35.282Z,64.10
2017-11-09T14:59:02.738Z,61.67
2017-11-09T15:01:30.217Z,61.13
2017-11-09T15:03:57.761Z,68.30
2017-11-09T15:06:25.323Z,71.60
2017-11-09T15:08:52.807Z,64.70
2017-11-09T15:11:20.866Z,65.10
2017-11-09T15:13:48.401Z,60.63
2017-11-09T15:16:15.880Z,68.53
2017-11-09T15:18:48.239Z,64.50
2017-11-09T15:21:15.721Z,67.77
2017-11-09T15:23:43.196Z,71.33
2017-11-09T15:26:11.443Z,75.90
2017-11-09T15:28:38.912Z,73.43
2017-11-09T15:31:07.217Z,73.63
2017-11-09T15:33:35.442Z,76.60
2017-11-09T15:36:08.986Z,61.83
2017-11-09T15:38:36.466Z,69.80
2017-11-09T15:41:03.952Z,62.83
2017-11-09T15:43:31.418Z,68.17
2017-11-09T15:45:59.802Z,64.70
2017-11-09T15:48:27.468Z,66.80
2017-11-09T15:50:55.011Z,67.00
2017-11-09T15:53:22.564Z,66.57
2017-11-09T15:55:50.064Z,67.90
2017-11-09T15:58:18.302Z,67.87
2017-11-09T16:00:45.765Z,76.23
2017-11-09T16:03:13.250Z,77.53
2017-11-09T16:05:41.526Z,71.60
2017-11-09T16:08:09.910Z,66.33
2017-11-09T16:10:38.162Z,69.77
2017-11-09T16:13:06.864Z,70.90
2017-11-09T16:15:35.100Z,61.97
2017-11-09T16:18:02.549Z,80.67
2017-11-09T16:20:31.806Z,64.40
2017-11-09T16:23:00.103Z,58.20
2017-11-09T16:25:27.609Z,68.67
2017-11-09T16:27:55.092Z,69.90
2017-11-09T16:30:24.009Z,72.80
2017-11-09T16:32:51.487Z,59.30
2017-11-09T16:35:18.961Z,70.67
2017-11-09T16:37:46.445Z,68.03
2017-11-09T16:40:14.675Z,64.90
2017-11-09T16:42:43.011Z,64.37
2017-11-09T16:45:10.494Z,64.83
2017-11-09T16:47:37.958Z,59.77
2017-11-09T16:50:05.461Z,70.83
2017-11-09T16:52:32.980Z,55.50
2017-11-09T16:55:00.548Z,61.20
2017-11-09T16:57:28.204Z,67.57
2017-11-09T16:59:55.722Z,70.93
2017-11-09T17:02:23.219Z,60.07
2017-11-09T17:04:50.705Z,61.13
2017-11-09T17:07:23.836Z,62.83
2017-11-09T17:09:51.343Z,57.63
2017-11-09T17:12:18.844Z,59.70
2017-11-09T17:14:48.880Z,54.47
2017-11-09T17:17:21.258Z,59.63
2017-11-09T17:19:48.726Z,60.97
2017-11-09T17:22:16.215Z,66.87
2017-11-09T17:24:43.711Z,61.60
2017-11-09T17:27:11.975Z,68.10
2017-11-09T17:29:40.225Z,61.80
2017-11-09T17:32:07.729Z,69.13
2017-11-09T17:34:35.293Z,64.00
2017-11-09T17:37:02.784Z,57.10
2017-11-09T17:39:30.254Z,59.90
2017-11-09T17:41:57.711Z,68.70
2017-11-09T17:44:25.203Z,68.20
2017-11-09T17:46:52.663Z,59.97
2017-11-09T17:49:20.163Z,63.17
2017-11-09T17:51:47.644Z,63.87
2017-11-09T17:54:15.239Z,58.47
2017-11-09T17:56:47.213Z,63.63
2017-11-09T17:59:14.697Z,65.17
2017-11-09T18:01:42.183Z,58.47
2017-11-09T18:04:09.686Z,62.60
2017-11-09T18:06:37.187Z,56.97
2017-11-09T18:09:04.703Z,56.43
2017-11-09T18:11:32.197Z,59.40
2017-11-09T18:13:59.717Z,59.70
2017-11-09T18:16:27.355Z,64.10
2017-11-09T18:18:54.950Z,63.70
2017-11-09T18:21:22.624Z,64.33
2017-11-09T18:23:50.863Z,56.33
2017-11-09T18:26:18.401Z,57.90
2017-11-09T18:28:46.685Z,58.77
2017-11-09T18:31:18.036Z,54.17
2017-11-09T18:33:45.473Z,61.23
2017-11-09T18:36:13.604Z,54.77
2017-11-09T18:38:41.090Z,63.20
2017-11-09T18:41:08.566Z,62.20
2017-11-09T18:43:36.844Z,58.07
2017-11-09T18:46:05.120Z,57.83
2017-11-09T18:48:33.406Z,59.87
2017-11-09T18:51:01.708Z,60.40
2017-11-09T18:53:29.185Z,63.43
2017-11-09T18:55:56.674Z,57.23
2017-11-09T18:58:24.257Z,55.10
2017-11-09T19:00:53.728Z,68.80
2017-11-09T19:03:21.222Z,57.77
2017-11-09T19:05:49.473Z,63.87
2017-11-09T19:08:17.735Z,64.37
2017-11-09T19:10:45.246Z,69.57
2017-11-09T19:13:12.730Z,59.67
2017-11-09T19:15:40.385Z,73.53
2017-11-09T19:18:07.969Z,57.60
2017-11-09T19:20:36.265Z,60.73
2017-11-09T19:23:04.552Z,65.77
2017-11-09T19:25:32.054Z,62.90
2017-11-09T19:27:59.530Z,61.43
2017-11-09T19:30:27.002Z,58.07
2017-11-09T19:32:55.381Z,68.40
2017-11-09T19:35:23.626Z,60.13
2017-11-09T19:37:51.112Z,63.87
2017-11-09T19:40:18.596Z,65.73
2017-11-09T19:42:46.825Z,62.70
2017-11-09T19:45:14.513Z,57.07
2017-11-09T19:47:41.994Z,58.53
2017-11-09T19:50:09.461Z,59.80
2017-11-09T19:52:36.943Z,64.30
2017-11-09T19:55:04.419Z,59.20
2017-11-09T19:57:31.910Z,60.87
2017-11-09T20:00:00.149Z,53.67
2017-11-09T20:02:27.644Z,61.67
2017-11-09T20:04:55.871Z,62.53
2017-11-09T20:07:23.370Z,53.73
2017-11-09T20:09:51.620Z,62.33
2017-11-09T20:12:19.095Z,61.80
2017-11-09T20:14:47.450Z,57.40
2017-11-09T20:17:15.703Z,63.83
2017-11-09T20:19:43.233Z,57.80
2017-11-09T20:22:10.693Z,54.97
2017-11-09T20:24:38.275Z,58.63
2017-11-09T20:27:05.735Z,57.50
2017-11-09T20:29:33.213Z,56.20
2017-11-09T20:32:00.697Z,58.27
2017-11-09T20:34:28.174Z,55.67
2017-11-09T20:36:55.649Z,57.80
2017-11-09T20:39:23.272Z,52.40
2017-11-09T20:41:51.515Z,58.90
2017-11-09T20:44:19.001Z,63.23
2017-11-09T20:46:46.500Z,66.77
2017-11-09T20:49:13.957Z,60.67
2017-11-09T20:51:41.438Z,58.23
2017-11-09T20:54:08.930Z,52.10
2017-11-09T20:56:37.199Z,58.90
2017-11-09T20:59:05.444Z,47.97
2017-11-09T21:01:32.938Z,57.90
2017-11-09T21:04:00.402Z,54.07
2017-11-09T21:06:27.886Z,54.10
2017-11-09T21:08:55.366Z,56.10
2017-11-09T21:11:23.349Z,57.00
2017-11-09T21:13:50.846Z,50.50
2017-11-09T21:16:19.124Z,49.63
2017-11-09T21:18:47.432Z,61.73
2017-11-09T21:21:14.894Z,59.00
2017-11-09T21:23:42.399Z,54.67
2017-11-09T21:26:09.915Z,51.23
2017-11-09T21:28:59.450Z,53.83
2017-11-09T21:31:29.111Z,52.40
2017-11-09T21:33:56.627Z,49.43
2017-11-09T21:36:35.390Z,50.03
2017-11-09T21:39:20.173Z,48.27
2017-11-09T21:41:53.057Z,50.63
2017-11-09T21:44:21.443Z,58.93
2017-11-09T21:46:53.868Z,46.57
2017-11-09T21:49:31.206Z,51.73
2017-11-09T21:52:00.990Z,48.03
2017-11-09T21:54:33.578Z,49.00
2017-11-09T21:57:08.740Z,50.97
2017-11-09T21:59:36.984Z,52.13
2017-11-09T22:02:05.544Z,50.57
2017-11-09T22:04:38.975Z,46.97
2017-11-09T22:07:10.501Z,45.43
2017-11-09T22:09:38.045Z,45.63
2017-11-09T22:12:06.946Z,47.50
2017-11-09T22:14:40.425Z,45.37
2017-11-09T22:17:09.184Z,49.20
2017-11-09T22:25:56.759Z,49.33
2017-11-09T22:28:24.811Z,44.53
2017-11-09T22:31:33.197Z,44.33
2017-11-09T22:34:03.672Z,45.80
2017-11-09T22:36:32.100Z,44.20
2017-11-09T22:39:14.657Z,45.53
2017-11-09T22:42:10.670Z,37.67
2017-11-09T22:45:05.541Z,38.73
2017-11-09T22:48:04.101Z,44.70
2017-11-09T22:54:03.896Z,38.83
2017-11-09T22:56:56.251Z,38.27
2017-11-09T22:59:38.642Z,41.37
2017-11-09T23:02:33.901Z,42.97
2017-11-09T23:05:26.581Z,41.43
2017-11-09T23:08:10.833Z,35.80
2017-11-09T23:10:53.982Z,43.03
2017-11-09T23:13:22.091Z,43.10
2017-11-09T23:15:49.934Z,43.90
2017-11-09T23:18:17.708Z,36.33
2017-11-09T23:20:46.067Z,39.80
2017-11-09T23:23:14.128Z,46.53
2017-11-09T23:25:42.252Z,41.30
2017-11-09T23:28:12.388Z,41.03
2017-11-09T23:30:39.945Z,42.47
2017-11-09T23:33:07.410Z,47.10
2017-11-09T23:35:34.934Z,45.83
2017-11-09T23:38:02.427Z,47.60
2017-11-09T23:40:29.914Z,50.97
2017-11-09T23:42:57.422Z,53.00
2017-11-09T23:45:24.893Z,49.47
2017-11-09T23:47:52.358Z,53.13
2017-11-09T23:50:19.850Z,48.20
2017-11-09T23:52:47.334Z,58.90
2017-11-09T23:55:14.806Z,58.43
2017-11-09T23:57:42.321Z,53.13
